Time;durP1;ratioP1;P1;durP2;ratioP2;P2;SDS_P1;SDS_P2;PMS_P1;PMS_P2;Temp;Humidity;BMP_temperature;BMP_pressure;BME280_temperature;BME280_humidity;BME280_pressure;Samples;Min_cycle;Max_cycle;Signal;HPM_P1;HPM_P2
2023/05/12 01:20:27;;;;;;;0.28;0.28;;;;;;;10.40;100.00;99623.09;957689;23;20335;-92
2023/05/12 01:22:54;;;;;;;0.10;0.10;;;;;;;10.22;100.00;99607.06;4880495;29;20067;-91
2023/05/12 01:25:22;;;;;;;0.00;0.00;;;;;;;10.26;100.00;99606.94;4850663;29;20071;-91
2023/05/12 01:27:48;;;;;;;0.10;0.10;;;;;;;10.27;100.00;99619.59;4855210;29;20465;-91
2023/05/12 01:30:18;;;;;;;0.35;0.35;;;;;;;10.28;100.00;99621.91;4883324;29;20040;-90
2023/05/12 01:32:44;;;;;;;0.15;0.15;;;;;;;10.38;100.00;99625.56;4877876;29;20047;-91
2023/05/12 01:35:09;;;;;;;0.50;0.50;;;;;;;10.40;100.00;99627.88;4875211;29;21704;-91
2023/05/12 01:37:37;;;;;;;0.10;0.10;;;;;;;10.43;100.00;99636.09;4846197;29;20501;-91
2023/05/12 01:40:05;;;;;;;0.52;0.52;;;;;;;10.33;100.00;99630.88;4857527;29;20064;-91
2023/05/12 01:42:31;;;;;;;0.20;0.20;;;;;;;10.37;100.00;99629.53;4861534;29;20899;-91
2023/05/12 01:44:57;;;;;;;0.00;0.00;;;;;;;10.30;100.00;99618.69;4857242;29;20040;-92
2023/05/12 01:47:23;;;;;;;0.22;0.22;;;;;;;10.00;100.00;99581.19;4875114;29;20040;-91
2023/05/12 01:50:00;;;;;;;0.35;0.32;;;;;;;10.28;100.00;99621.91;4861535;29;20072;-91
2023/05/12 01:52:27;;;;;;;0.00;0.00;;;;;;;10.33;100.00;99619.78;4871608;29;20074;-92
2023/05/12 01:54:52;;;;;;;2.15;0.25;;;;;;;10.37;100.00;99629.53;4876859;29;20098;-93
2023/05/12 01:57:18;;;;;;;0.38;0.38;;;;;;;10.44;100.00;99634.06;4887893;29;20122;-93
2023/05/12 01:59:44;;;;;;;0.15;0.15;;;;;;;10.44;100.00;99631.31;4844242;29;21226;-93
2023/05/12 02:02:11;;;;;;;0.10;0.10;;;;;;;10.34;100.00;99613.03;4860504;29;20076;-93
2023/05/12 02:04:36;;;;;;;0.00;0.00;;;;;;;10.50;100.00;99635.09;4860741;29;20048;-93
2023/05/12 02:07:02;;;;;;;0.00;0.00;;;;;;;10.35;100.00;99622.91;4875120;29;20064;-93
2023/05/12 02:09:28;;;;;;;0.03;0.03;;;;;;;10.44;100.00;99629.31;4865770;29;20044;-92
2023/05/12 02:11:58;;;;;;;0.00;0.00;;;;;;;10.35;100.00;99615.38;4874630;29;20059;-93
2023/05/12 02:14:24;;;;;;;0.25;0.25;;;;;;;10.30;100.00;99610.38;4846184;29;20045;-93
2023/05/12 02:16:51;;;;;;;0.22;0.10;;;;;;;10.32;100.00;99621.00;4865059;29;20052;-92
2023/05/12 02:19:19;;;;;;;0.00;0.00;;;;;;;10.38;100.00;99624.78;4859963;29;20518;-91
2023/05/12 02:21:45;;;;;;;0.10;0.10;;;;;;;10.34;100.00;99613.81;4849504;29;20048;-93
2023/05/12 02:24:10;;;;;;;0.00;0.00;;;;;;;10.38;100.00;99619.25;4844750;29;20524;-92
2023/05/12 02:26:36;;;;;;;0.05;0.05;;;;;;;10.41;100.00;99637.75;4849856;29;20051;-93
2023/05/12 02:29:02;;;;;;;0.15;0.15;;;;;;;10.34;100.00;99629.66;4862649;29;20053;-92
2023/05/12 02:31:27;;;;;;;0.52;0.22;;;;;;;10.29;100.00;99619.91;4858148;29;20044;-93
2023/05/12 02:33:54;;;;;;;0.10;0.10;;;;;;;10.33;100.00;99628.09;4859185;29;20044;-92
2023/05/12 02:36:19;;;;;;;0.00;0.00;;;;;;;10.26;100.00;99610.50;4858476;29;20524;-92
2023/05/12 02:38:45;;;;;;;0.13;0.10;;;;;;;10.26;100.00;99607.72;4860976;29;20056;-93
2023/05/12 02:41:11;;;;;;;0.00;0.00;;;;;;;10.36;100.00;99624.44;4873144;29;20036;-93
2023/05/12 02:43:36;;;;;;;0.10;0.10;;;;;;;10.36;100.00;99624.44;4859008;29;20072;-92
2023/05/12 02:46:02;;;;;;;0.10;0.10;;;;;;;10.17;100.00;99613.16;4860362;29;20132;-92
2023/05/12 02:48:28;;;;;;;0.05;0.05;;;;;;;10.24;100.00;99615.69;4869304;29;20242;-93
2023/05/12 02:50:53;;;;;;;0.10;0.10;;;;;;;10.25;100.00;99622.78;4860569;29;20044;-93
2023/05/12 02:53:19;;;;;;;0.10;0.10;;;;;;;10.29;100.00;99622.69;4858496;29;20036;-93
2023/05/12 02:55:44;;;;;;;0.00;0.00;;;;;;;10.30;100.00;99629.78;4875199;29;20060;-92
2023/05/12 02:58:10;;;;;;;0.00;0.00;;;;;;;10.29;100.00;99628.22;4860377;29;20049;-92
2023/05/12 03:00:36;;;;;;;0.00;0.00;;;;;;;10.30;100.00;99624.25;4857079;29;20409;-91
2023/05/12 03:03:01;;;;;;;0.15;0.15;;;;;;;10.24;100.00;99618.47;4859502;29;20041;-93
2023/05/12 03:05:27;;;;;;;0.20;0.15;;;;;;;10.16;100.00;99608.81;4860292;29;20069;-92
2023/05/12 03:07:53;;;;;;;0.00;0.00;;;;;;;10.26;100.00;99613.28;4855749;29;20051;-92
2023/05/12 03:10:18;;;;;;;0.20;0.10;;;;;;;10.28;100.00;99624.66;4861425;29;20047;-92
2023/05/12 03:12:44;;;;;;;0.00;0.00;;;;;;;10.00;100.00;99595.06;4858412;29;20446;-93
2023/05/12 03:15:10;;;;;;;0.10;0.10;;;;;;;10.21;100.00;99621.34;4881439;29;20033;-92
2023/05/12 03:17:35;;;;;;;0.00;0.00;;;;;;;10.26;100.00;99623.56;4873841;29;20108;-93
2023/05/12 03:20:02;;;;;;;0.00;0.00;;;;;;;10.20;100.00;99605.94;4872451;29;20494;-93
2023/05/12 03:22:28;;;;;;;0.57;0.55;;;;;;;10.28;100.00;99621.91;4875738;29;20356;-93
2023/05/12 03:24:55;;;;;;;0.13;0.13;;;;;;;10.26;100.00;99606.94;4859936;29;20036;-93
2023/05/12 03:27:22;;;;;;;0.10;0.10;;;;;;;10.35;100.00;99614.59;4850088;29;20059;-93
2023/05/12 03:29:47;;;;;;;0.20;0.20;;;;;;;9.99;100.00;99582.41;4845139;29;20502;-92
2023/05/12 03:32:13;;;;;;;0.00;0.00;;;;;;;10.19;100.00;99604.41;4857537;29;20040;-92
2023/05/12 03:34:38;;;;;;;0.00;0.00;;;;;;;10.26;100.00;99613.28;4846093;29;20087;-91
2023/05/12 03:37:04;;;;;;;0.20;0.20;;;;;;;10.33;100.00;99628.88;4873860;29;20119;-93
2023/05/12 03:39:30;;;;;;;0.00;0.00;;;;;;;10.10;100.00;99582.88;4858728;29;20339;-92
2023/05/12 03:41:55;;;;;;;0.13;0.13;;;;;;;10.22;100.00;99607.06;4858387;29;20043;-91
2023/05/12 03:44:24;;;;;;;0.10;0.10;;;;;;;10.38;100.00;99625.56;4858151;29;20036;-92
2023/05/12 03:46:50;;;;;;;0.00;0.00;;;;;;;10.32;100.00;99626.53;4866348;29;20741;-92
2023/05/12 03:49:16;;;;;;;0.30;0.15;;;;;;;10.37;100.00;99632.31;4872411;29;20065;-92
2023/05/12 03:51:41;;;;;;;0.00;0.00;;;;;;;10.44;100.00;99634.06;4858438;29;20047;-91
2023/05/12 03:54:07;;;;;;;0.00;0.00;;;;;;;10.34;100.00;99616.59;4858562;29;20037;-92
2023/05/12 03:56:33;;;;;;;0.10;0.10;;;;;;;10.45;100.00;99619.00;4871778;29;20052;-93
2023/05/12 03:58:58;;;;;;;0.20;0.20;;;;;;;10.36;100.00;99621.66;4859960;29;20445;-92
2023/05/12 04:01:24;;;;;;;0.15;0.15;;;;;;;10.40;100.00;99633.41;4861616;29;20052;-94
2023/05/12 04:03:50;;;;;;;0.35;0.30;;;;;;;10.26;100.00;99604.94;4854909;29;20489;-93
2023/05/12 04:06:15;;;;;;;0.08;0.08;;;;;;;10.43;100.00;99615.91;4854243;29;20482;-93
2023/05/12 04:08:41;;;;;;;0.00;0.00;;;;;;;10.49;100.00;99614.88;4852024;29;20033;-93
2023/05/12 04:11:08;;;;;;;0.00;0.00;;;;;;;10.53;100.00;99625.88;4861186;29;20405;-92
2023/05/12 04:13:33;;;;;;;0.10;0.10;;;;;;;10.42;100.00;99609.59;4855376;29;20060;-91
2023/05/12 04:15:59;;;;;;;0.13;0.13;;;;;;;10.58;100.00;99622.53;4863478;29;20143;-92
2023/05/12 04:18:26;;;;;;;0.05;0.05;;;;;;;10.55;100.00;99615.13;4857943;29;20051;-92
2023/05/12 04:20:55;;;;;;;0.28;0.28;;;;;;;10.56;100.00;99622.97;4872608;29;20052;-93
2023/05/12 04:23:21;;;;;;;0.00;0.00;;;;;;;10.60;100.00;99631.16;4852416;29;20186;-92
2023/05/12 04:25:47;;;;;;;0.20;0.20;;;;;;;10.49;100.00;99619.66;4849617;29;20083;-93
2023/05/12 04:28:13;;;;;;;0.30;0.30;;;;;;;10.50;100.00;99626.75;4857389;29;20049;-93
2023/05/12 04:30:40;;;;;;;0.22;0.22;;;;;;;10.58;100.00;99630.84;4859137;29;20088;-93
2023/05/12 04:33:06;;;;;;;0.00;0.00;;;;;;;10.49;100.00;99614.88;4856983;29;20067;-90
2023/05/12 04:35:32;;;;;;;0.20;0.20;;;;;;;10.54;100.00;99632.97;4855137;29;20094;-92
2023/05/12 04:38:01;;;;;;;0.20;0.20;;;;;;;10.54;100.00;99638.50;4865810;29;20206;-91
2023/05/12 04:40:26;;;;;;;0.90;0.43;;;;;;;10.32;100.00;99613.47;4878644;29;20528;-92
2023/05/12 04:42:52;;;;;;;0.75;0.43;;;;;;;10.31;100.00;99616.69;4875368;29;20045;-91
2023/05/12 04:45:21;;;;;;;0.47;0.47;;;;;;;10.44;100.00;99640.41;4842650;29;20048;-91
2023/05/12 04:47:47;;;;;;;0.65;0.65;;;;;;;10.50;100.00;99646.16;4869958;29;20124;-89
2023/05/12 04:50:12;;;;;;;0.00;0.00;;;;;;;10.44;100.00;99636.84;4877675;29;20577;-91
2023/05/12 04:52:38;;;;;;;0.20;0.20;;;;;;;10.52;100.00;99652.03;4888043;29;20151;-92
2023/05/12 04:55:04;;;;;;;0.38;0.32;;;;;;;10.52;100.00;99641.72;4869464;29;20108;-91
2023/05/12 04:57:30;;;;;;;0.20;0.20;;;;;;;10.56;100.00;99652.69;4846787;29;20057;-90
2023/05/12 04:59:59;;;;;;;0.45;0.43;;;;;;;10.41;100.00;99629.44;4858542;29;20098;-91
2023/05/12 05:02:26;;;;;;;0.30;0.30;;;;;;;10.60;100.00;99636.72;4860744;29;20040;-91
2023/05/12 05:04:52;;;;;;;0.10;0.10;;;;;;;10.59;100.00;99658.16;4870839;29;20051;-90
2023/05/12 05:07:20;;;;;;;0.63;0.52;;;;;;;10.53;100.00;99648.03;4849861;29;20056;-94
2023/05/12 05:09:45;;;;;;;1.08;0.85;;;;;;;10.40;100.00;99634.19;4868311;29;20067;-95
2023/05/12 05:12:21;;;;;;;;;;;;;;;;;;;;;
2023/05/12 05:14:53;;;;;;;0.10;0.10;;;;;;;10.20;100.00;99620.56;4868501;29;20056;-93
2023/05/12 05:17:21;;;;;;;0.10;0.10;;;;;;;10.24;100.00;99626.78;4862846;29;20047;-94
2023/05/12 05:19:49;;;;;;;0.10;0.10;;;;;;;10.24;100.00;99629.56;4865674;29;20052;-94
2023/05/12 05:22:15;;;;;;;0.08;0.08;;;;;;;10.22;100.00;99629.25;4846873;29;20572;-94
2023/05/12 05:24:41;;;;;;;0.20;0.20;;;;;;;10.44;100.00;99656.25;4845980;29;20049;-94
2023/05/12 05:27:07;;;;;;;0.43;0.43;;;;;;;10.47;100.00;99667.25;4846352;29;20052;-93
2023/05/12 05:29:33;;;;;;;0.10;0.10;;;;;;;10.46;100.00;99676.00;4858789;29;20230;-94
2023/05/12 05:31:59;;;;;;;0.35;0.35;;;;;;;10.40;100.00;99658.38;4857391;29;20045;-94
2023/05/12 05:34:25;;;;;;;1.10;1.00;;;;;;;10.39;100.00;99654.06;4849129;29;20049;-92
2023/05/12 05:36:50;;;;;;;0.55;0.52;;;;;;;10.51;100.00;99670.69;4855293;29;20093;-94
2023/05/12 05:39:29;;;;;;;;;;;;;;;;;;;;;
2023/05/12 05:41:56;;;;;;;0.32;0.28;;;;;;;10.49;100.00;99678.66;4879072;29;20053;-93
2023/05/12 05:44:24;;;;;;;0.47;0.47;;;;;;;10.40;100.00;99656.38;4851431;29;20076;-94
2023/05/12 05:46:51;;;;;;;0.85;0.25;;;;;;;10.25;100.00;99633.09;4866679;29;20089;-94
2023/05/12 05:49:18;;;;;;;0.43;0.35;;;;;;;10.19;100.00;99626.59;4857808;29;20044;-93
2023/05/12 05:51:46;;;;;;;0.25;0.25;;;;;;;10.43;100.00;99663.81;4856685;29;20041;-92
2023/05/12 05:54:13;;;;;;;0.25;0.25;;;;;;;10.55;100.00;99667.81;4872268;29;20061;-92
2023/05/12 05:56:39;;;;;;;1.10;1.00;;;;;;;10.52;100.00;99674.22;4860176;29;20433;-92
2023/05/12 05:59:05;;;;;;;0.45;0.45;;;;;;;10.51;100.00;99670.69;4857704;29;20049;-91
2023/05/12 06:01:31;;;;;;;0.68;0.68;;;;;;;10.61;100.00;99690.97;4872843;29;20045;-92
2023/05/12 06:03:57;;;;;;;0.35;0.25;;;;;;;10.66;100.00;99695.97;4860959;29;20467;-92
2023/05/12 06:06:22;;;;;;;1.95;0.85;;;;;;;10.64;100.00;99693.63;4861084;29;20053;-91
2023/05/12 06:08:48;;;;;;;0.57;0.57;;;;;;;10.67;100.00;99694.75;4857925;29;20497;-92
2023/05/12 06:11:17;;;;;;;0.25;0.25;;;;;;;10.64;100.00;99684.53;4875297;29;20395;-91
2023/05/12 06:13:42;;;;;;;0.35;0.35;;;;;;;10.59;100.00;99694.22;4859338;29;20052;-92
2023/05/12 06:16:08;;;;;;;0.75;0.75;;;;;;;10.66;100.00;99713.38;4875062;29;20048;-92
2023/05/12 06:18:36;;;;;;;0.68;0.68;;;;;;;10.59;100.00;99693.44;4859021;29;20108;-92
2023/05/12 06:21:05;;;;;;;1.40;0.68;;;;;;;10.56;100.00;99702.63;4857789;29;20053;-93
2023/05/12 06:23:30;;;;;;;1.35;1.05;;;;;;;10.53;100.00;99697.97;4864217;29;20056;-93
2023/05/12 06:25:59;;;;;;;0.10;0.10;;;;;;;10.62;100.00;99711.94;4889884;29;20752;-92
2023/05/12 06:28:26;;;;;;;0.25;0.25;;;;;;;10.60;100.00;99711.59;4891254;29;20045;-92
2023/05/12 06:30:52;;;;;;;1.02;0.60;;;;;;;10.45;100.00;99702.19;4874669;29;20048;-92
2023/05/12 06:33:17;;;;;;;0.50;0.50;;;;;;;10.39;100.00;99692.88;4841200;29;20128;-93
2023/05/12 06:35:46;;;;;;;0.00;0.00;;;;;;;10.44;100.00;99693.09;4887292;29;20047;-92
2023/05/12 06:38:11;;;;;;;0.22;0.22;;;;;;;10.50;100.00;99696.09;4875642;29;20121;-92
2023/05/12 06:40:37;;;;;;;0.38;0.38;;;;;;;10.65;100.00;99713.81;4876008;29;20176;-92
2023/05/12 06:43:02;;;;;;;0.52;0.22;;;;;;;10.59;100.00;99696.19;4871043;29;20041;-92
2023/05/12 06:45:28;;;;;;;0.77;0.73;;;;;;;10.65;100.00;99711.03;4890851;29;20184;-92
2023/05/12 06:47:57;;;;;;;0.98;0.98;;;;;;;10.66;100.00;99680.09;4859321;29;20076;-91
2023/05/12 06:50:26;;;;;;;0.28;0.28;;;;;;;10.63;100.00;99669.13;4845479;29;20049;-92
2023/05/12 06:52:52;;;;;;;0.38;0.35;;;;;;;10.83;100.00;99694.63;4852271;29;20033;-92
2023/05/12 06:55:19;;;;;;;0.50;0.50;;;;;;;10.93;100.00;99710.13;4855596;29;20108;-92
2023/05/12 06:57:50;;;;;;;0.40;0.40;;;;;;;10.93;100.00;99696.25;4867580;29;20610;-93
2023/05/12 07:00:19;;;;;;;1.00;0.85;;;;;;;10.89;100.00;99687.25;4873811;29;20041;-92
2023/05/12 07:02:44;;;;;;;0.65;0.65;;;;;;;10.88;100.00;99674.59;4855687;29;20042;-93
2023/05/12 07:05:10;;;;;;;0.77;0.60;;;;;;;10.75;100.00;99671.09;4871173;29;20053;-91
2023/05/12 07:07:35;;;;;;;1.48;1.35;;;;;;;10.98;100.00;99687.34;4868350;29;20044;-93
2023/05/12 07:10:01;;;;;;;0.52;0.50;;;;;;;10.86;100.00;99699.25;4872931;29;20064;-93
2023/05/12 07:12:28;;;;;;;0.65;0.65;;;;;;;10.70;100.00;99668.88;4873640;29;20128;-93
2023/05/12 07:14:53;;;;;;;0.43;0.43;;;;;;;10.93;100.00;99695.47;4875461;29;20397;-92
2023/05/12 07:17:20;;;;;;;0.70;0.70;;;;;;;11.01;100.00;99719.75;4875527;29;20112;-93
2023/05/12 07:19:46;;;;;;;1.08;1.00;;;;;;;10.95;100.00;99707.69;4874488;29;20041;-93
2023/05/12 07:22:11;;;;;;;1.63;0.90;;;;;;;10.90;100.00;99711.00;4879019;29;20542;-91
2023/05/12 07:24:37;;;;;;;0.20;0.20;;;;;;;10.83;100.00;99700.16;4892571;29;20048;-91
2023/05/12 07:27:03;;;;;;;1.00;0.65;;;;;;;10.75;100.00;99705.16;4891300;29;20047;-91
2023/05/12 07:29:29;;;;;;;0.88;0.82;;;;;;;10.76;100.00;99705.91;4880210;29;20098;-90
2023/05/12 07:31:54;;;;;;;1.27;1.17;;;;;;;10.83;100.00;99716.81;4892045;29;20493;-91
2023/05/12 07:34:20;;;;;;;0.52;0.52;;;;;;;10.92;100.00;99736.31;4862963;29;20055;-92
2023/05/12 07:36:46;;;;;;;0.10;0.10;;;;;;;10.94;100.00;99733.88;4850249;29;20051;-92
2023/05/12 07:39:13;;;;;;;2.00;1.20;;;;;;;10.86;100.00;99721.47;4875780;29;20417;-91
2023/05/12 07:41:40;;;;;;;0.70;0.70;;;;;;;10.96;100.00;99741.75;4894093;29;20055;-91
2023/05/12 07:44:06;;;;;;;0.30;0.30;;;;;;;10.86;100.00;99724.22;4893388;29;20047;-91
2023/05/12 07:46:31;;;;;;;2.40;0.95;;;;;;;10.49;100.00;99681.44;4892797;29;20044;-91
2023/05/12 07:48:57;;;;;;;0.95;0.95;;;;;;;10.82;100.00;99737.44;4874382;29;20083;-91
2023/05/12 07:51:25;;;;;;;1.33;0.93;;;;;;;10.71;100.00;99720.38;4893366;29;20045;-92
2023/05/12 07:53:51;;;;;;;0.40;0.40;;;;;;;10.60;100.00;99708.81;4865171;29;20390;-92
2023/05/12 07:56:20;;;;;;;0.30;0.30;;;;;;;10.58;100.00;99700.97;4862720;29;20119;-91
2023/05/12 07:58:46;;;;;;;0.20;0.20;;;;;;;10.72;100.00;99722.69;4877086;29;20159;-91
2023/05/12 11:19:27;;;;;;;2.10;0.93;;;;;;;11.52;100.00;99755.72;4918063;29;20043;-90
2023/05/12 11:21:59;;;;;;;1.55;1.48;;;;;;;11.58;100.00;99751.13;4900927;29;20090;-90
2023/05/12 11:24:25;;;;;;;1.95;1.77;;;;;;;11.87;100.00;99793.38;4882634;29;20100;-88
2023/05/12 11:26:51;;;;;;;2.03;1.90;;;;;;;11.92;100.00;99795.59;4883108;29;20048;-89
2023/05/12 11:29:20;;;;;;;1.55;1.45;;;;;;;12.05;100.00;99815.00;4879378;29;20104;-89
2023/05/12 11:31:47;;;;;;;9.13;1.75;;;;;;;11.90;100.00;99792.47;4893006;29;20059;-89
2023/05/12 11:34:13;;;;;;;0.60;0.47;;;;;;;11.93;100.00;99783.22;4910353;29;20071;-89
2023/05/12 11:36:41;;;;;;;1.85;1.25;;;;;;;11.97;100.00;99789.44;4901458;29;20071;-88
2023/05/12 11:39:12;;;;;;;0.60;0.60;;;;;;;12.08;100.00;99803.72;4896169;29;20103;-89
2023/05/12 11:41:38;;;;;;;1.23;1.23;;;;;;;12.10;100.00;99806.81;4904060;29;20047;-88
2023/05/12 11:44:16;;;;;;;0.88;0.85;;;;;;;12.01;100.00;99808.78;4882397;29;20032;-88
2023/05/12 11:47:00;;;;;;;1.27;1.17;;;;;;;11.79;100.00;99788.53;4908107;29;20418;-89
2023/05/12 11:49:30;;;;;;;6.93;1.42;;;;;;;11.87;100.00;99798.16;4884744;29;20047;-88
2023/05/12 11:51:57;;;;;;;1.45;1.15;;;;;;;11.93;100.00;99824.91;4882211;29;20067;-88
2023/05/12 11:54:24;;;;;;;1.75;1.63;;;;;;;11.79;100.00;99814.31;4877131;29;20044;-89
2023/05/12 11:56:54;;;;;;;5.82;1.60;;;;;;;11.72;100.00;99792.34;4876491;29;20047;-88
2023/05/12 11:59:28;;;;;;;0.65;0.65;;;;;;;11.89;100.00;99807.59;4859118;29;20518;-88
2023/05/12 12:01:54;;;;;;;1.27;1.17;;;;;;;11.83;100.00;99803.84;4910534;29;20044;-88
2023/05/12 12:04:37;;;;;;;0.28;0.28;;;;;;;11.90;100.00;99813.91;4874953;29;20032;-87
2023/05/12 12:07:06;;;;;;;1.17;1.13;;;;;;;11.64;100.00;99774.34;4873166;29;20052;-88
2023/05/12 12:09:34;;;;;;;2.25;2.05;;;;;;;11.93;100.00;99816.56;4877058;29;20126;-88
2023/05/12 12:12:00;;;;;;;1.02;0.93;;;;;;;11.74;100.00;99795.44;4876881;29;20036;-87
2023/05/12 12:14:26;;;;;;;0.10;0.10;;;;;;;11.98;100.00;99832.69;4874734;29;20070;-89
2023/05/12 12:16:52;;;;;;;1.08;1.05;;;;;;;11.99;100.00;99831.47;4853016;29;20503;-88
2023/05/12 12:19:17;;;;;;;2.28;1.17;;;;;;;11.80;100.00;99793.63;4897059;29;20048;-88
2023/05/12 12:21:43;;;;;;;8.77;1.60;;;;;;;11.81;100.00;99799.97;4858390;29;20491;-88
2023/05/12 12:24:09;;;;;;;1.65;1.27;;;;;;;12.00;100.00;99819.13;4872280;29;20044;-88
2023/05/12 12:26:34;;;;;;;0.73;0.73;;;;;;;12.04;100.00;99810.66;4861150;29;20041;-88
2023/05/12 12:29:00;;;;;;;0.98;0.63;;;;;;;11.93;100.00;99791.56;4878357;29;20040;-88
2023/05/12 12:31:25;;;;;;;0.63;0.63;;;;;;;11.96;100.00;99776.78;4899122;29;20115;-88
2023/05/12 12:33:51;;;;;;;0.80;0.80;;;;;;;12.13;100.00;99810.72;4890807;29;20176;-88
2023/05/12 12:36:17;;;;;;;0.30;0.30;;;;;;;12.10;100.00;99792.91;4909065;29;20047;-88
2023/05/12 12:38:43;;;;;;;0.70;0.70;;;;;;;12.33;100.00;99822.28;4875858;29;20491;-88
2023/05/12 12:41:09;;;;;;;2.25;0.75;;;;;;;12.18;100.00;99792.66;4912902;29;20048;-89
2023/05/12 12:43:34;;;;;;;1.45;1.27;;;;;;;12.25;100.00;99795.19;4877447;29;20068;-89
2023/05/12 12:46:00;;;;;;;1.40;1.30;;;;;;;12.33;100.00;99824.28;4903793;29;20047;-89
2023/05/12 12:48:27;;;;;;;4.05;2.05;;;;;;;12.29;100.00;99815.31;4892731;29;20067;-89
2023/05/12 12:50:53;;;;;;;1.48;1.05;;;;;;;12.27;100.00;99809.41;4889806;29;20047;-89
2023/05/12 12:53:19;;;;;;;2.75;1.88;;;;;;;12.20;100.00;99795.78;4864872;29;20068;-90
2023/05/12 12:55:48;;;;;;;1.95;1.65;;;;;;;12.37;100.00;99819.38;4902265;29;20075;-95
2023/05/12 12:58:14;;;;;;;1.70;1.60;;;;;;;12.08;100.00;99778.72;4907652;29;20211;-96
2023/05/12 13:00:42;;;;;;;1.38;1.25;;;;;;;12.13;100.00;99772.53;4892175;29;20044;-96
2023/05/12 13:03:08;;;;;;;2.30;1.70;;;;;;;12.32;100.00;99794.91;4906263;29;20049;-96
2023/05/12 13:05:34;;;;;;;1.70;1.60;;;;;;;12.25;100.00;99775.72;4906088;29;20040;-95
2023/05/12 13:08:00;;;;;;;1.92;1.80;;;;;;;12.22;100.00;99771.06;4890151;29;20040;-96
2023/05/12 13:10:26;;;;;;;0.80;0.80;;;;;;;12.12;100.00;99778.56;4899653;29;20068;-96
2023/05/12 13:12:52;;;;;;;1.23;1.00;;;;;;;12.16;100.00;99776.44;4892378;29;20059;-96
2023/05/12 13:15:18;;;;;;;0.60;0.60;;;;;;;12.30;100.00;99803.72;4905496;29;20052;-95
2023/05/12 13:17:48;;;;;;;2.33;1.52;;;;;;;12.03;100.00;99790.41;4900659;29;20048;-94
2023/05/12 13:20:14;;;;;;;1.23;1.13;;;;;;;12.37;100.00;99841.63;4898173;29;20049;-95
2023/05/12 13:22:41;;;;;;;1.33;1.23;;;;;;;12.19;100.00;99836.69;4889403;29;20128;-90
2023/05/12 13:25:07;;;;;;;1.15;1.05;;;;;;;12.19;100.00;99841.47;4880284;29;20036;-91
2023/05/12 13:27:36;;;;;;;1.42;1.33;;;;;;;12.18;100.00;99840.69;4898535;29;20525;-91
2023/05/12 13:30:06;;;;;;;0.93;0.88;;;;;;;12.20;100.00;99854.16;4882644;29;20518;-90
2023/05/12 13:32:32;;;;;;;0.80;0.80;;;;;;;12.15;100.00;99852.75;4861222;29;20127;-90
2023/05/12 13:34:58;;;;;;;0.50;0.50;;;;;;;12.03;100.00;99848.78;4877434;29;20036;-91
2023/05/12 13:37:24;;;;;;;0.82;0.82;;;;;;;11.74;100.00;99809.31;4878281;29;20053;-91
2023/05/12 13:39:49;;;;;;;0.60;0.60;;;;;;;12.00;100.00;99851.69;4879138;29;20048;-89
2023/05/12 13:42:16;;;;;;;2.65;1.48;;;;;;;11.72;100.00;99811.00;4877210;29;20051;-96
2023/05/12 13:44:42;;;;;;;2.65;1.25;;;;;;;11.98;100.00;99843.81;4907646;29;20124;-96
2023/05/12 13:47:08;;;;;;;1.75;1.45;;;;;;;11.60;100.00;99807.03;4904195;29;20040;-96
2023/05/12 13:49:35;;;;;;;2.00;1.80;;;;;;;11.47;100.00;99786.84;4887329;29;20056;-96
2023/05/12 13:52:01;;;;;;;1.45;1.35;;;;;;;11.47;100.00;99793.16;4900061;29;20051;-96
2023/05/12 13:54:27;;;;;;;1.95;1.75;;;;;;;11.83;100.00;99865.00;4882686;29;20049;-96
2023/05/12 13:56:57;;;;;;;0.75;0.63;;;;;;;11.47;100.00;99804.28;4886119;29;20055;-96
2023/05/12 13:59:34;;;;;;;0.95;0.95;;;;;;;11.46;100.00;99808.28;4896548;29;20032;-95
2023/05/12 14:02:00;;;;;;;1.85;1.10;;;;;;;11.66;100.00;99833.00;4860977;29;20667;-91
2023/05/12 14:04:25;;;;;;;1.73;1.42;;;;;;;11.57;100.00;99813.47;4880764;29;20058;-89
2023/05/12 14:06:52;;;;;;;1.35;1.25;;;;;;;11.79;100.00;99841.31;4883503;29;20139;-91
2023/05/12 14:09:18;;;;;;;0.82;0.63;;;;;;;11.83;100.00;99853.88;4867023;29;20044;-90
2023/05/12 14:11:43;;;;;;;1.40;1.30;;;;;;;11.74;100.00;99834.34;4885876;29;20037;-89
2023/05/12 14:14:09;;;;;;;3.40;1.20;;;;;;;11.69;100.00;99821.75;4877835;29;20514;-89
2023/05/12 14:16:35;;;;;;;1.73;1.63;;;;;;;11.86;100.00;99850.19;4876154;29;20089;-89
2023/05/12 14:19:00;;;;;;;1.10;1.02;;;;;;;11.73;100.00;99843.13;4881301;29;20048;-94
2023/05/12 14:21:26;;;;;;;1.85;1.75;;;;;;;11.65;100.00;99817.53;4879462;29;20048;-95
2023/05/12 14:23:52;;;;;;;1.65;1.55;;;;;;;11.90;100.00;99858.41;4871362;29;20044;-94
2023/05/12 14:26:18;;;;;;;3.40;2.35;;;;;;;11.83;100.00;99850.31;4881783;29;20049;-94
2023/05/12 14:28:44;;;;;;;2.22;2.03;;;;;;;11.71;100.00;99824.09;4880646;29;20122;-93
2023/05/12 14:31:10;;;;;;;1.20;0.98;;;;;;;11.96;100.00;99846.28;4862624;29;20048;-93
2023/05/12 14:33:39;;;;;;;2.67;2.47;;;;;;;11.84;100.00;99827.63;4865030;29;20060;-95
2023/05/12 14:36:05;;;;;;;1.98;1.83;;;;;;;11.88;100.00;99830.28;4881409;29;20040;-95
2023/05/12 14:38:30;;;;;;;2.42;1.52;;;;;;;11.92;100.00;99826.16;4884954;29;20089;-95
2023/05/12 14:40:56;;;;;;;2.42;1.70;;;;;;;12.00;100.00;99852.47;4880837;29;20048;-93
2023/05/12 14:43:21;;;;;;;1.92;1.38;;;;;;;12.03;100.00;99848.00;4869412;29;20044;-93
2023/05/12 14:45:53;;;;;;;1.70;1.20;;;;;;;12.07;100.00;99851.44;4862296;29;20495;-95
2023/05/12 14:48:20;;;;;;;1.83;1.50;;;;;;;12.13;100.00;99860.78;4878858;29;20080;-95
2023/05/12 14:50:46;;;;;;;1.98;1.60;;;;;;;12.20;100.00;99865.28;4881649;29;20533;-94
2023/05/12 14:53:12;;;;;;;1.73;1.23;;;;;;;12.25;100.00;99867.50;4873940;29;20091;-94
2023/05/12 14:55:37;;;;;;;2.75;2.08;;;;;;;12.28;100.00;99863.81;4880130;29;20036;-95
2023/05/12 14:58:03;;;;;;;1.23;1.17;;;;;;;12.14;100.00;99845.63;4878099;29;20054;-94
2023/05/12 15:00:29;;;;;;;1.63;1.52;;;;;;;12.08;100.00;99859.34;4881972;29;20051;-95
2023/05/12 15:02:54;;;;;;;1.90;1.45;;;;;;;11.92;100.00;99834.50;4877568;29;20043;-94
2023/05/12 15:05:20;;;;;;;1.67;1.58;;;;;;;12.02;100.00;99852.78;4882199;29;20048;-94
2023/05/12 15:07:45;;;;;;;1.40;1.30;;;;;;;12.02;100.00;99855.56;4873881;29;20502;-95
2023/05/12 15:10:11;;;;;;;2.00;1.80;;;;;;;12.04;100.00;99864.25;4882288;29;20047;-95
2023/05/12 15:12:36;;;;;;;1.92;1.80;;;;;;;12.04;100.00;99853.13;4877533;29;20112;-89
2023/05/12 15:15:05;;;;;;;1.85;1.70;;;;;;;11.84;100.00;99822.09;4902198;29;20043;-89
2023/05/12 15:17:31;;;;;;;1.08;0.98;;;;;;;12.09;100.00;99869.22;4907799;29;20115;-87
2023/05/12 15:19:58;;;;;;;2.63;1.45;;;;;;;11.95;100.00;99844.72;4872131;29;20063;-89
2023/05/12 15:22:24;;;;;;;2.92;1.35;;;;;;;11.97;100.00;99853.34;4875670;29;20111;-89
2023/05/12 15:24:49;;;;;;;1.67;1.38;;;;;;;11.90;100.00;99847.28;4903791;29;20072;-90
2023/05/12 15:27:15;;;;;;;1.23;0.85;;;;;;;12.09;100.00;99883.13;4871465;29;20139;-89
2023/05/12 15:29:41;;;;;;;1.52;1.40;;;;;;;12.00;100.00;99855.25;4893991;29;20040;-89
2023/05/12 15:32:06;;;;;;;1.65;1.55;;;;;;;11.95;100.00;99836.38;4878554;29;20044;-90
2023/05/12 15:34:35;;;;;;;1.23;1.13;;;;;;;11.91;100.00;99821.81;4886861;29;20063;-89
2023/05/12 15:37:01;;;;;;;2.47;1.88;;;;;;;12.00;100.00;99841.34;4879863;29;20402;-89
2023/05/12 15:39:26;;;;;;;1.02;0.88;;;;;;;12.21;100.00;99875.19;4877300;29;20048;-90
2023/05/12 15:41:52;;;;;;;1.80;1.70;;;;;;;11.95;100.00;99839.16;4872030;29;20571;-89
2023/05/12 15:44:18;;;;;;;1.13;1.02;;;;;;;12.20;100.00;99870.84;4876326;29;20040;-89
2023/05/12 15:46:44;;;;;;;1.15;1.08;;;;;;;12.04;100.00;99852.34;4881566;29;20054;-89
2023/05/12 15:49:09;;;;;;;1.55;1.45;;;;;;;12.20;100.00;99865.28;4875829;29;20325;-88
2023/05/12 15:51:35;;;;;;;1.35;1.02;;;;;;;12.22;100.00;99868.38;4876818;29;20565;-89
2023/05/12 15:54:02;;;;;;;0.82;0.82;;;;;;;12.19;100.00;99869.28;4864403;29;20048;-89
2023/05/12 15:56:27;;;;;;;0.60;0.52;;;;;;;12.18;100.00;99873.28;4881496;29;20040;-89
2023/05/12 15:58:55;;;;;;;0.77;0.77;;;;;;;12.19;100.00;99883.97;4884265;29;20111;-91
2023/05/12 16:01:21;;;;;;;2.47;2.25;;;;;;;12.15;100.00;99866.63;4881542;29;20044;-89